Time;durP1;ratioP1;P1;durP2;ratioP2;P2;SDS_P1;SDS_P2;PMS_P1;PMS_P2;Temp;Humidity;BMP_temperature;BMP_pressure;BME280_temperature;BME280_humidity;BME280_pressure;Samples;Min_cycle;Max_cycle;Signal;HPM_P1;HPM_P2
2023/09/01 00:01:00;;;;;;;;;;;25.20;56.20;;;;;;5051360;28;19925;-60
2023/09/01 00:03:27;;;;;;;;;;;25.20;56.40;;;;;;5051507;28;19932;-60
2023/09/01 00:05:54;;;;;;;;;;;25.20;56.20;;;;;;5050518;28;19929;-60
2023/09/01 00:08:23;;;;;;;;;;;25.20;56.20;;;;;;5056657;28;19971;-60
2023/09/01 00:10:50;;;;;;;;;;;25.20;56.20;;;;;;5054050;28;19968;-60
2023/09/01 00:13:17;;;;;;;;;;;25.20;56.30;;;;;;5057567;28;19929;-60
2023/09/01 00:15:44;;;;;;;;;;;25.20;56.20;;;;;;5073488;28;19932;-60
2023/09/01 00:18:11;;;;;;;;;;;25.20;56.20;;;;;;5096678;28;19924;-60
2023/09/01 00:20:38;;;;;;;;;;;25.20;56.20;;;;;;5054827;28;19925;-60
2023/09/01 00:23:05;;;;;;;;;;;25.20;56.20;;;;;;5087378;28;19983;-60
2023/09/01 00:25:32;;;;;;;;;;;25.20;56.30;;;;;;5054590;28;19932;-60
2023/09/01 00:27:59;;;;;;;;;;;25.20;56.30;;;;;;5054950;28;19987;-60
2023/09/01 00:30:29;;;;;;;;;;;25.20;56.30;;;;;;5054144;28;19925;-61
2023/09/01 00:32:57;;;;;;;;;;;25.20;56.30;;;;;;5071189;28;20418;-60
2023/09/01 00:35:24;;;;;;;;;;;25.20;56.30;;;;;;5054129;28;19970;-60
2023/09/01 00:37:51;;;;;;;;;;;25.20;56.30;;;;;;5068106;28;19967;-60
2023/09/01 00:40:18;;;;;;;;;;;25.20;56.30;;;;;;5052418;28;19947;-60
2023/09/01 00:42:48;;;;;;;;;;;25.20;56.30;;;;;;5067865;28;20024;-60
2023/09/01 00:45:17;;;;;;;;;;;25.20;56.30;;;;;;5055642;28;20354;-60
2023/09/01 00:47:44;;;;;;;;;;;25.20;56.30;;;;;;5054658;28;19925;-60
2023/09/01 00:50:12;;;;;;;;;;;25.20;56.30;;;;;;5055532;28;19925;-60
2023/09/01 00:52:39;;;;;;;;;;;25.20;56.30;;;;;;5054967;28;19971;-60
2023/09/01 00:55:06;;;;;;;;;;;25.20;56.30;;;;;;5055078;28;20351;-60
2023/09/01 00:57:33;;;;;;;;;;;25.20;56.30;;;;;;5054870;28;19929;-61
2023/09/01 01:00:00;;;;;;;;;;;25.10;56.20;;;;;;5055020;28;20007;-60
2023/09/01 01:02:27;;;;;;;;;;;25.20;56.30;;;;;;5054449;28;19925;-60
2023/09/01 01:04:54;;;;;;;;;;;25.10;56.30;;;;;;5054908;28;19983;-60
2023/09/01 01:07:38;;;;;;;;;;;25.10;56.20;;;;;;5061921;28;20385;-60
2023/09/01 01:10:09;;;;;;;;;;;25.10;56.10;;;;;;5055017;28;19932;-60
2023/09/01 01:12:47;;;;;;;;;;;25.20;56.20;;;;;;5052834;28;20016;-60
2023/09/01 01:15:15;;;;;;;;;;;25.20;56.10;;;;;;5053331;28;19932;-60
2023/09/01 01:17:44;;;;;;;;;;;25.20;56.10;;;;;;5055347;28;20004;-60
2023/09/01 01:20:21;;;;;;;;;;;25.20;56.10;;;;;;5055193;28;19925;-60
2023/09/01 01:22:48;;;;;;;;;;;25.20;56.00;;;;;;5053891;28;20211;-60
2023/09/01 01:25:16;;;;;;;;;;;25.20;56.00;;;;;;5054960;28;20411;-60
2023/09/01 01:27:43;;;;;;;;;;;25.20;56.00;;;;;;5054642;28;20015;-60
2023/09/01 01:30:13;;;;;;;;;;;25.20;56.20;;;;;;5054053;28;19960;-60
2023/09/01 01:32:44;;;;;;;;;;;25.20;56.00;;;;;;5053679;28;20140;-60
2023/09/01 01:35:24;;;;;;;;;;;25.20;56.00;;;;;;5045736;28;19925;-60
2023/09/01 01:38:11;;;;;;;;;;;25.20;55.90;;;;;;5034772;28;20031;-60
2023/09/01 01:40:40;;;;;;;;;;;25.20;56.00;;;;;;5040327;28;20382;-61
2023/09/01 01:43:07;;;;;;;;;;;25.20;55.90;;;;;;5041223;28;20335;-60
2023/09/01 01:45:34;;;;;;;;;;;25.20;55.90;;;;;;5041382;28;19956;-60
2023/09/01 01:48:02;;;;;;;;;;;25.20;55.90;;;;;;5053444;28;19924;-60
2023/09/01 01:50:29;;;;;;;;;;;25.20;55.90;;;;;;5054436;28;19925;-60
2023/09/01 01:52:56;;;;;;;;;;;25.20;55.90;;;;;;5040891;28;19975;-60
2023/09/01 01:55:23;;;;;;;;;;;25.20;55.90;;;;;;5052821;28;19952;-60
2023/09/01 01:57:49;;;;;;;;;;;25.20;56.00;;;;;;5029803;28;20435;-61
2023/09/01 02:00:18;;;;;;;;;;;25.20;56.00;;;;;;5041070;28;19972;-60
2023/09/01 02:02:46;;;;;;;;;;;25.10;55.90;;;;;;5040183;28;19931;-61
2023/09/01 02:05:13;;;;;;;;;;;25.10;56.00;;;;;;5054060;28;19983;-60
2023/09/01 02:07:40;;;;;;;;;;;25.10;56.00;;;;;;5049007;28;19968;-62
2023/09/01 02:10:07;;;;;;;;;;;25.10;56.00;;;;;;5037528;28;20028;-60
2023/09/01 02:12:34;;;;;;;;;;;25.10;56.00;;;;;;5073849;28;19948;-60
2023/09/01 02:15:01;;;;;;;;;;;25.10;56.00;;;;;;5053391;28;19947;-60
2023/09/01 02:17:28;;;;;;;;;;;25.10;56.00;;;;;;5054045;28;19925;-60
2023/09/01 02:19:58;;;;;;;;;;;25.10;56.10;;;;;;5052884;28;19925;-60
2023/09/01 02:22:25;;;;;;;;;;;25.10;56.10;;;;;;5053554;28;19974;-60
2023/09/01 02:24:52;;;;;;;;;;;25.10;56.60;;;;;;5071993;28;19928;-61
2023/09/01 02:27:18;;;;;;;;;;;25.10;56.10;;;;;;5072532;28;19928;-60
2023/09/01 02:29:45;;;;;;;;;;;25.10;56.10;;;;;;5056353;28;19932;-61
2023/09/01 02:32:12;;;;;;;;;;;25.10;56.10;;;;;;5053933;28;19925;-60
2023/09/01 02:34:39;;;;;;;;;;;25.10;56.10;;;;;;5053034;28;20011;-60
2023/09/01 02:37:06;;;;;;;;;;;25.10;56.10;;;;;;5053421;28;19933;-61
2023/09/01 02:39:33;;;;;;;;;;;25.10;56.10;;;;;;5052706;28;19928;-60
2023/09/01 02:42:01;;;;;;;;;;;25.10;56.10;;;;;;5052010;28;20405;-60
2023/09/01 02:44:28;;;;;;;;;;;25.10;56.10;;;;;;5051962;28;20405;-60
2023/09/01 02:46:55;;;;;;;;;;;25.10;56.10;;;;;;5053170;28;19986;-61
2023/09/01 02:49:22;;;;;;;;;;;25.10;56.10;;;;;;5052946;28;20431;-60
2023/09/01 02:51:49;;;;;;;;;;;25.10;56.10;;;;;;5052279;28;19947;-61
2023/09/01 02:54:16;;;;;;;;;;;25.10;56.10;;;;;;5052827;28;19963;-60
2023/09/01 02:56:43;;;;;;;;;;;25.10;56.10;;;;;;5052531;28;20009;-60
2023/09/01 02:59:10;;;;;;;;;;;25.10;56.10;;;;;;5053083;28;19947;-61
2023/09/01 03:01:37;;;;;;;;;;;25.10;56.10;;;;;;5051440;28;20020;-60
2023/09/01 03:04:07;;;;;;;;;;;25.10;56.10;;;;;;5053357;28;19925;-60
2023/09/01 03:06:34;;;;;;;;;;;25.10;56.10;;;;;;5052549;28;19928;-60
2023/09/01 03:09:02;;;;;;;;;;;25.10;56.10;;;;;;5053055;28;19925;-61
2023/09/01 03:11:29;;;;;;;;;;;25.10;56.10;;;;;;5050161;28;20007;-60
2023/09/01 03:13:56;;;;;;;;;;;25.10;56.10;;;;;;5053342;28;19929;-60
2023/09/01 03:16:23;;;;;;;;;;;25.10;56.10;;;;;;5052175;28;19925;-60
2023/09/01 03:18:57;;;;;;;;;;;25.10;56.10;;;;;;5052946;28;19928;-60
2023/09/01 03:21:24;;;;;;;;;;;25.10;56.10;;;;;;5053823;28;19925;-61
2023/09/01 03:23:51;;;;;;;;;;;25.10;56.10;;;;;;5065432;28;19924;-60
2023/09/01 03:26:18;;;;;;;;;;;25.10;56.10;;;;;;5052436;28;19931;-61
2023/09/01 03:28:48;;;;;;;;;;;25.10;56.10;;;;;;5049145;28;20525;-60
2023/09/01 03:31:15;;;;;;;;;;;25.10;56.10;;;;;;5068090;28;20369;-60
2023/09/01 03:33:42;;;;;;;;;;;25.10;56.10;;;;;;5067091;28;19925;-60
2023/09/01 03:36:09;;;;;;;;;;;25.10;56.00;;;;;;5051338;28;19925;-60
2023/09/01 03:38:36;;;;;;;;;;;25.10;56.00;;;;;;5055245;28;19924;-60
2023/09/01 03:41:07;;;;;;;;;;;25.10;55.90;;;;;;5059956;28;19946;-60
2023/09/01 03:43:34;;;;;;;;;;;25.10;55.90;;;;;;5068919;28;19931;-60
2023/09/01 03:46:01;;;;;;;;;;;25.10;55.90;;;;;;5054791;28;20008;-60
2023/09/01 03:48:28;;;;;;;;;;;25.10;55.80;;;;;;5056641;28;20004;-60
2023/09/01 03:51:06;;;;;;;;;;;25.10;55.90;;;;;;5056179;28;20327;-60
2023/09/01 03:53:33;;;;;;;;;;;25.10;55.80;;;;;;5055671;28;19972;-60
2023/09/01 03:56:00;;;;;;;;;;;25.10;55.80;;;;;;5055990;28;19931;-61
2023/09/01 03:58:27;;;;;;;;;;;25.10;55.80;;;;;;5057176;28;19970;-60
2023/09/01 04:00:54;;;;;;;;;;;25.10;55.80;;;;;;5073740;28;19928;-60
2023/09/01 04:03:21;;;;;;;;;;;25.10;55.70;;;;;;5063155;28;20471;-60
2023/09/01 04:05:49;;;;;;;;;;;25.10;55.70;;;;;;5056798;28;20316;-60
2023/09/01 04:08:16;;;;;;;;;;;25.10;55.70;;;;;;5058125;28;19971;-60
2023/09/01 04:10:43;;;;;;;;;;;25.10;55.70;;;;;;5073198;28;20273;-60
2023/09/01 04:13:10;;;;;;;;;;;25.10;55.70;;;;;;5075466;28;20411;-60
2023/09/01 04:15:37;;;;;;;;;;;25.10;55.70;;;;;;5055246;28;19928;-60
2023/09/01 04:18:04;;;;;;;;;;;25.10;55.70;;;;;;5075732;28;19931;-60
2023/09/01 04:20:31;;;;;;;;;;;25.10;55.70;;;;;;5058641;28;19931;-60
2023/09/01 04:22:58;;;;;;;;;;;25.10;55.70;;;;;;5054960;28;20266;-60
2023/09/01 04:25:24;;;;;;;;;;;25.10;55.70;;;;;;5055696;28;20393;-60
2023/09/01 04:27:51;;;;;;;;;;;25.10;55.70;;;;;;5055108;28;19959;-60
2023/09/01 04:30:19;;;;;;;;;;;25.10;55.70;;;;;;5074886;28;19925;-60
2023/09/01 04:32:46;;;;;;;;;;;25.10;55.70;;;;;;5075534;28;19990;-60
2023/09/01 04:35:14;;;;;;;;;;;25.10;55.60;;;;;;5060860;28;19925;-60
2023/09/01 04:37:41;;;;;;;;;;;25.10;55.70;;;;;;5055653;28;19928;-60
2023/09/01 04:40:09;;;;;;;;;;;25.00;55.60;;;;;;5055880;28;19931;-60
2023/09/01 04:42:36;;;;;;;;;;;24.90;55.50;;;;;;5054695;28;19924;-60
2023/09/01 04:45:04;;;;;;;;;;;24.80;55.70;;;;;;5052943;28;19936;-60
2023/09/01 04:47:31;;;;;;;;;;;24.60;56.00;;;;;;5071080;28;20277;-60
2023/09/01 04:49:58;;;;;;;;;;;24.40;55.70;;;;;;5065991;28;19977;-60
2023/09/01 04:52:24;;;;;;;;;;;24.10;54.60;;;;;;5063807;28;19925;-60
2023/09/01 04:55:08;;;;;;;;;;;23.80;52.50;;;;;;5051871;28;19925;-60
2023/09/01 04:57:35;;;;;;;;;;;23.50;50.90;;;;;;5052434;28;19929;-60
2023/09/01 05:00:15;;;;;;;;;;;23.20;50.00;;;;;;5058663;28;20016;-60
2023/09/01 05:02:44;;;;;;;;;;;23.00;49.70;;;;;;5057805;28;19970;-60
2023/09/01 05:05:11;;;;;;;;;;;22.60;49.00;;;;;;5052145;28;19932;-60
2023/09/01 05:07:39;;;;;;;;;;;22.30;48.90;;;;;;5051278;28;19936;-60
2023/09/01 05:10:06;;;;;;;;;;;22.00;48.40;;;;;;5050200;28;20354;-61
2023/09/01 05:12:33;;;;;;;;;;;21.80;48.50;;;;;;5045830;28;19924;-60
2023/09/01 05:15:00;;;;;;;;;;;21.50;50.50;;;;;;5047398;28;19925;-61
2023/09/01 05:17:28;;;;;;;;;;;21.30;49.90;;;;;;5051575;28;20211;-62
2023/09/01 05:19:56;;;;;;;;;;;21.00;50.00;;;;;;5045396;28;19939;-62
2023/09/01 05:22:23;;;;;;;;;;;20.80;50.40;;;;;;5050734;28;19932;-60
2023/09/01 05:24:50;;;;;;;;;;;20.60;51.40;;;;;;5045138;28;20436;-60
2023/09/01 05:27:19;;;;;;;;;;;20.50;51.30;;;;;;5046274;28;19932;-60
2023/09/01 05:29:47;;;;;;;;;;;20.40;50.50;;;;;;5048604;28;19925;-60
2023/09/01 05:32:15;;;;;;;;;;;20.20;51.90;;;;;;5045624;28;20027;-62
2023/09/01 05:34:42;;;;;;;;;;;20.10;52.10;;;;;;5038303;28;20405;-62
2023/09/01 05:37:11;;;;;;;;;;;20.00;51.30;;;;;;5046662;28;19932;-61
2023/09/01 05:39:39;;;;;;;;;;;19.90;52.00;;;;;;5041259;28;19980;-62
2023/09/01 05:42:06;;;;;;;;;;;19.80;53.10;;;;;;5044083;28;20017;-62
2023/09/01 05:44:34;;;;;;;;;;;19.80;53.20;;;;;;5042991;28;19925;-62
2023/09/01 05:47:03;;;;;;;;;;;19.70;52.30;;;;;;5048701;28;20408;-62
2023/09/01 05:49:34;;;;;;;;;;;19.70;52.80;;;;;;5041100;28;19928;-62
2023/09/01 05:52:01;;;;;;;;;;;19.60;53.30;;;;;;5040964;28;19925;-62
2023/09/01 05:54:28;;;;;;;;;;;19.50;52.40;;;;;;5043424;28;19928;-63
2023/09/01 05:56:55;;;;;;;;;;;19.50;53.00;;;;;;5046320;28;19929;-61
2023/09/01 05:59:22;;;;;;;;;;;19.40;53.70;;;;;;5045281;28;19925;-61
2023/09/01 06:01:50;;;;;;;;;;;19.40;53.20;;;;;;5045819;28;19925;-61
2023/09/01 06:04:18;;;;;;;;;;;19.40;53.20;;;;;;5044858;28;19975;-63
2023/09/01 06:06:45;;;;;;;;;;;19.30;54.20;;;;;;5046321;28;19983;-62
2023/09/01 06:09:13;;;;;;;;;;;19.30;54.30;;;;;;5049313;28;19933;-60
2023/09/01 06:11:41;;;;;;;;;;;19.30;53.20;;;;;;5041530;28;19929;-59
2023/09/01 06:14:09;;;;;;;;;;;19.30;53.70;;;;;;5045301;28;19964;-60
2023/09/01 06:16:36;;;;;;;;;;;19.30;54.20;;;;;;5078219;28;19943;-61
2023/09/01 06:19:03;;;;;;;;;;;19.30;53.70;;;;;;5050484;28;19952;-60
2023/09/01 06:21:31;;;;;;;;;;;19.30;53.20;;;;;;5050989;28;19924;-60
2023/09/01 06:23:58;;;;;;;;;;;19.20;54.10;;;;;;5047193;28;19952;-61
2023/09/01 06:26:25;;;;;;;;;;;19.30;54.20;;;;;;5046084;28;19960;-61
2023/09/01 06:28:52;;;;;;;;;;;19.30;53.70;;;;;;5045352;28;19937;-62
2023/09/01 06:31:19;;;;;;;;;;;19.20;54.00;;;;;;5043400;28;19998;-61
2023/09/01 06:33:47;;;;;;;;;;;19.20;54.10;;;;;;5047163;28;19999;-61
2023/09/01 06:36:14;;;;;;;;;;;19.20;53.40;;;;;;5045101;28;20393;-60
2023/09/01 06:38:42;;;;;;;;;;;19.20;53.70;;;;;;5047791;28;19925;-61
2023/09/01 06:41:09;;;;;;;;;;;19.20;54.30;;;;;;5047014;28;19944;-62
2023/09/01 06:43:36;;;;;;;;;;;19.10;53.70;;;;;;5049204;28;20091;-61
2023/09/01 06:46:03;;;;;;;;;;;19.10;52.70;;;;;;5046321;28;19936;-61
2023/09/01 06:48:31;;;;;;;;;;;19.10;54.40;;;;;;5043643;28;20292;-61
2023/09/01 06:50:59;;;;;;;;;;;19.00;54.30;;;;;;5042068;28;20040;-62
2023/09/01 06:53:27;;;;;;;;;;;19.00;54.80;;;;;;5040689;28;19925;-61
2023/09/01 06:55:54;;;;;;;;;;;18.90;56.60;;;;;;5043030;28;19933;-60
2023/09/01 06:58:21;;;;;;;;;;;18.90;57.50;;;;;;5042005;28;20889;-60
2023/09/01 07:00:51;;;;;;;;;;;18.80;54.80;;;;;;5047175;28;20317;-64
2023/09/01 07:03:19;;;;;;;;;;;18.80;57.10;;;;;;5041946;28;19940;-59
2023/09/01 07:05:54;;;;;;;;;;;18.80;54.90;;;;;;5044776;28;19976;-60
2023/09/01 07:08:21;;;;;;;;;;;18.80;55.40;;;;;;5042558;28;20408;-60
2023/09/01 07:10:48;;;;;;;;;;;18.80;56.30;;;;;;5045601;28;19936;-61
2023/09/01 07:13:15;;;;;;;;;;;18.90;55.30;;;;;;5039709;28;20385;-59
2023/09/01 07:15:49;;;;;;;;;;;18.90;57.40;;;;;;5043773;28;20348;-60
2023/09/01 07:18:16;;;;;;;;;;;18.90;57.60;;;;;;5045146;28;20188;-61
2023/09/01 07:20:46;;;;;;;;;;;18.90;56.60;;;;;;5041512;28;19940;-59
2023/09/01 07:23:13;;;;;;;;;;;18.90;58.50;;;;;;5043777;28;19994;-59
2023/09/01 07:25:42;;;;;;;;;;;18.90;57.10;;;;;;5046648;28;19963;-60
2023/09/01 07:28:09;;;;;;;;;;;18.90;57.30;;;;;;5042175;28;19940;-60
2023/09/01 07:30:36;;;;;;;;;;;18.90;58.90;;;;;;5044276;28;20381;-61
2023/09/01 07:33:03;;;;;;;;;;;18.90;58.10;;;;;;5046387;28;19925;-60
2023/09/01 07:35:31;;;;;;;;;;;18.90;58.10;;;;;;5045285;28;19936;-61
2023/09/01 07:37:58;;;;;;;;;;;18.90;57.00;;;;;;5040714;28;20394;-60
2023/09/01 07:40:26;;;;;;;;;;;18.90;57.80;;;;;;5042321;28;20404;-60
2023/09/01 07:42:53;;;;;;;;;;;18.90;57.80;;;;;;5078499;28;20377;-59
2023/09/01 07:45:20;;;;;;;;;;;19.00;57.70;;;;;;5046973;28;19929;-60
2023/09/01 07:47:48;;;;;;;;;;;19.00;56.70;;;;;;5042871;28;20019;-60
2023/09/01 07:50:31;;;;;;;;;;;19.00;57.10;;;;;;5043848;28;20014;-59
2023/09/01 07:52:58;;;;;;;;;;;19.10;58.80;;;;;;5043294;28;19978;-59
2023/09/01 07:55:25;;;;;;;;;;;19.00;59.00;;;;;;5043219;28;19931;-59
2023/09/01 07:57:52;;;;;;;;;;;19.10;58.90;;;;;;5043658;28;19929;-59
2023/09/01 08:00:20;;;;;;;;;;;19.10;58.10;;;;;;5042201;28;19980;-59
2023/09/01 08:02:48;;;;;;;;;;;19.10;59.40;;;;;;5038965;28;20354;-59
2023/09/01 08:05:17;;;;;;;;;;;19.10;60.30;;;;;;5045131;28;19933;-59
2023/09/01 08:07:45;;;;;;;;;;;19.20;59.40;;;;;;5043884;28;20011;-59
2023/09/01 08:10:12;;;;;;;;;;;19.20;59.70;;;;;;5045023;28;20328;-59
2023/09/01 08:12:39;;;;;;;;;;;19.20;60.30;;;;;;5061803;28;20273;-60
2023/09/01 08:15:11;;;;;;;;;;;19.20;59.10;;;;;;5046135;28;19955;-59
2023/09/01 08:17:38;;;;;;;;;;;19.30;59.50;;;;;;5049721;28;19942;-59
2023/09/01 08:20:07;;;;;;;;;;;19.30;60.30;;;;;;5043956;28;20438;-60
2023/09/01 08:22:36;;;;;;;;;;;19.30;60.00;;;;;;5047447;28;19925;-57
2023/09/01 08:25:03;;;;;;;;;;;19.30;60.70;;;;;;5041528;28;19968;-57
2023/09/01 08:27:30;;;;;;;;;;;19.40;60.40;;;;;;5044091;28;20015;-61
2023/09/01 08:29:57;;;;;;;;;;;19.40;59.20;;;;;;5044702;28;19925;-59
2023/09/01 08:32:25;;;;;;;;;;;19.40;60.30;;;;;;5046582;28;19924;-62
2023/09/01 08:34:52;;;;;;;;;;;19.50;59.70;;;;;;5045159;28;19928;-61
2023/09/01 08:37:20;;;;;;;;;;;19.50;59.50;;;;;;5044205;28;19929;-61
2023/09/01 08:39:46;;;;;;;;;;;19.50;59.60;;;;;;5048732;28;19937;-61
2023/09/01 08:42:14;;;;;;;;;;;19.60;59.20;;;;;;5048643;28;20403;-60
2023/09/01 08:44:42;;;;;;;;;;;19.60;59.10;;;;;;5049284;28;19978;-61
2023/09/01 08:47:10;;;;;;;;;;;19.70;60.80;;;;;;5044594;28;19982;-61
2023/09/01 08:49:38;;;;;;;;;;;19.70;59.40;;;;;;5044094;28;19936;-61
2023/09/01 08:52:05;;;;;;;;;;;19.70;59.50;;;;;;5040040;28;19933;-61
2023/09/01 08:54:34;;;;;;;;;;;19.80;59.10;;;;;;5058012;28;19936;-60
2023/09/01 08:57:02;;;;;;;;;;;19.80;59.10;;;;;;5045656;28;19974;-61
2023/09/01 08:59:31;;;;;;;;;;;19.90;59.60;;;;;;5044112;28;19929;-61
2023/09/01 09:01:59;;;;;;;;;;;19.90;59.60;;;;;;5064855;28;19925;-62
2023/09/01 09:04:26;;;;;;;;;;;19.90;59.10;;;;;;5045990;28;19975;-61
2023/09/01 09:06:53;;;;;;;;;;;20.00;59.10;;;;;;5047269;28;19925;-62
2023/09/01 09:09:21;;;;;;;;;;;20.00;59.50;;;;;;5046922;28;20594;-61
2023/09/01 09:11:58;;;;;;;;;;;20.00;60.60;;;;;;5038387;28;19968;-61
2023/09/01 09:14:27;;;;;;;;;;;20.00;59.60;;;;;;5032627;28;19925;-61
2023/09/01 09:16:55;;;;;;;;;;;20.00;59.90;;;;;;5029083;28;19929;-62
2023/09/01 09:19:23;;;;;;;;;;;20.10;59.20;;;;;;5033516;28;19975;-62
2023/09/01 09:22:05;;;;;;;;;;;20.10;59.60;;;;;;5033003;28;19925;-62
2023/09/01 09:24:34;;;;;;;;;;;20.20;59.40;;;;;;5028213;28;19971;-62
2023/09/01 09:27:05;;;;;;;;;;;20.20;59.30;;;;;;5011230;28;20023;-60
2023/09/01 09:29:40;;;;;;;;;;;20.20;59.40;;;;;;5030847;28;19940;-60
2023/09/01 09:32:19;;;;;;;;;;;20.20;59.40;;;;;;5030160;28;20015;-60
2023/09/01 09:35:07;;;;;;;;;;;20.30;59.10;;;;;;5026160;28;19925;-60
2023/09/01 09:37:34;;;;;;;;;;;20.30;59.00;;;;;;5024063;28;19933;-63
2023/09/01 09:40:09;;;;;;;;;;;20.40;58.80;;;;;;5023691;28;19979;-63
2023/09/01 09:42:38;;;;;;;;;;;20.40;59.20;;;;;;5025548;28;19936;-62
2023/09/01 09:45:21;;;;;;;;;;;20.40;58.80;;;;;;5026180;28;20019;-61
2023/09/01 09:47:49;;;;;;;;;;;20.50;58.80;;;;;;5010115;28;20289;-61
2023/09/01 09:50:17;;;;;;;;;;;20.50;59.40;;;;;;5031759;28;19936;-62
2023/09/01 09:52:51;;;;;;;;;;;20.50;58.70;;;;;;5028764;28;19925;-61
2023/09/01 09:55:24;;;;;;;;;;;20.50;59.30;;;;;;5030065;28;19929;-61
2023/09/01 09:57:51;;;;;;;;;;;20.50;58.30;;;;;;5029393;28;19928;-61
2023/09/01 10:00:20;;;;;;;;;;;20.50;58.30;;;;;;5028165;28;19968;-61
2023/09/01 10:02:56;;;;;;;;;;;20.50;58.80;;;;;;5023772;28;19979;-60
2023/09/01 10:05:24;;;;;;;;;;;20.50;57.80;;;;;;5026881;28;19929;-61
2023/09/01 10:07:51;;;;;;;;;;;20.50;57.70;;;;;;5024044;28;19979;-61
2023/09/01 10:10:19;;;;;;;;;;;20.50;58.10;;;;;;5030337;28;19925;-61
2023/09/01 10:12:46;;;;;;;;;;;20.50;58.00;;;;;;5042511;28;19967;-61
2023/09/01 10:15:14;;;;;;;;;;;20.50;57.10;;;;;;5049516;28;19925;-62
2023/09/01 10:17:42;;;;;;;;;;;20.50;56.90;;;;;;5044643;28;19959;-61
2023/09/01 10:20:09;;;;;;;;;;;20.50;57.60;;;;;;5046056;28;19971;-62
2023/09/01 10:22:40;;;;;;;;;;;20.50;57.80;;;;;;5048375;28;20377;-62
2023/09/01 10:25:19;;;;;;;;;;;20.40;58.10;;;;;;5049476;28;20028;-62
2023/09/01 10:28:03;;;;;;;;;;;20.40;56.50;;;;;;5045289;28;19929;-61
2023/09/01 10:30:31;;;;;;;;;;;20.40;57.70;;;;;;5049934;28;19978;-61
2023/09/01 10:33:06;;;;;;;;;;;20.40;57.00;;;;;;5047254;28;19932;-59
2023/09/01 10:35:40;;;;;;;;;;;20.40;56.50;;;;;;5046125;28;20336;-60
2023/09/01 10:38:08;;;;;;;;;;;20.30;56.30;;;;;;5046644;28;19936;-60
2023/09/01 10:40:38;;;;;;;;;;;20.30;56.70;;;;;;5047160;28;20034;-60
2023/09/01 10:43:07;;;;;;;;;;;20.30;56.90;;;;;;5051227;28;19978;-61
2023/09/01 10:45:33;;;;;;;;;;;20.30;57.20;;;;;;5045612;28;20020;-60
2023/09/01 10:48:02;;;;;;;;;;;20.20;57.50;;;;;;5047606;28;19929;-61
2023/09/01 10:50:34;;;;;;;;;;;20.20;57.00;;;;;;5045751;28;19955;-62
2023/09/01 10:53:21;;;;;;;;;;;20.20;57.20;;;;;;5051431;28;19932;-61
2023/09/01 10:56:04;;;;;;;;;;;20.20;56.50;;;;;;5046315;28;20365;-66
2023/09/01 10:58:38;;;;;;;;;;;20.20;56.90;;;;;;5046376;28;19929;-61
2023/09/01 11:01:23;;;;;;;;;;;20.20;55.70;;;;;;5046888;28;20389;-60
2023/09/01 11:03:50;;;;;;;;;;;20.20;57.20;;;;;;5042734;28;22501;-62
2023/09/01 11:06:17;;;;;;;;;;;20.20;57.60;;;;;;5044527;28;19968;-61
2023/09/01 11:08:58;;;;;;;;;;;20.20;56.20;;;;;;5040771;28;20433;-60
2023/09/01 11:11:26;;;;;;;;;;;20.20;55.90;;;;;;5043762;28;20495;-60
2023/09/01 11:13:59;;;;;;;;;;;20.20;55.70;;;;;;5043876;28;20207;-60
2023/09/01 11:16:26;;;;;;;;;;;20.20;55.70;;;;;;5043632;28;19925;-62
2023/09/01 11:19:00;;;;;;;;;;;20.20;56.90;;;;;;5041602;28;19928;-61
2023/09/01 11:21:27;;;;;;;;;;;20.20;56.50;;;;;;5077967;28;19932;-61
2023/09/01 11:24:00;;;;;;;;;;;20.10;57.30;;;;;;5046483;28;19964;-62
2023/09/01 11:26:28;;;;;;;;;;;20.10;56.90;;;;;;5045430;28;20045;-61
2023/09/01 11:28:55;;;;;;;;;;;20.10;56.30;;;;;;5047828;28;19964;-60
2023/09/01 11:31:23;;;;;;;;;;;20.20;57.00;;;;;;5044875;28;19939;-60
2023/09/01 11:33:53;;;;;;;;;;;20.20;57.30;;;;;;5045816;28;19952;-60
2023/09/01 11:36:20;;;;;;;;;;;20.20;57.00;;;;;;5046580;28;19933;-61
2023/09/01 11:38:49;;;;;;;;;;;20.20;57.70;;;;;;5042020;28;19984;-62
2023/09/01 11:41:18;;;;;;;;;;;20.20;56.70;;;;;;5045363;28;19979;-62
2023/09/01 11:43:46;;;;;;;;;;;20.20;56.80;;;;;;5046080;28;20203;-61
2023/09/01 11:46:13;;;;;;;;;;;20.20;57.10;;;;;;5059094;28;19930;-62
2023/09/01 11:48:41;;;;;;;;;;;20.30;57.60;;;;;;5046239;28;19951;-61
2023/09/01 11:51:11;;;;;;;;;;;20.30;57.70;;;;;;5047279;28;20303;-62
2023/09/01 11:53:38;;;;;;;;;;;20.30;56.90;;;;;;5042781;28;20035;-61
2023/09/01 11:56:25;;;;;;;;;;;20.30;57.00;;;;;;5050055;28;20030;-62
2023/09/01 11:58:53;;;;;;;;;;;20.40;57.50;;;;;;5043254;28;20024;-61
2023/09/01 12:01:21;;;;;;;;;;;20.40;57.80;;;;;;5043963;28;19963;-62
2023/09/01 12:03:50;;;;;;;;;;;20.40;56.90;;;;;;5052589;28;20280;-62
2023/09/01 12:06:18;;;;;;;;;;;20.40;57.30;;;;;;5061251;28;19935;-63
2023/09/01 12:08:46;;;;;;;;;;;20.40;56.90;;;;;;5052837;28;20028;-62
2023/09/01 12:11:13;;;;;;;;;;;20.40;57.30;;;;;;5054473;28;19946;-61
2023/09/01 12:13:43;;;;;;;;;;;20.50;57.50;;;;;;5051173;28;19979;-62
2023/09/01 12:16:23;;;;;;;;;;;20.50;57.50;;;;;;5049181;28;19929;-61
2023/09/01 12:18:51;;;;;;;;;;;20.50;57.30;;;;;;5055424;28;19990;-61
2023/09/01 12:21:18;;;;;;;;;;;20.50;57.20;;;;;;5052881;28;19924;-62
2023/09/01 12:23:46;;;;;;;;;;;20.50;57.40;;;;;;5052547;28;19932;-61
2023/09/01 12:26:13;;;;;;;;;;;20.60;57.40;;;;;;5051029;28;20429;-61
2023/09/01 12:28:41;;;;;;;;;;;20.60;57.20;;;;;;5050226;28;19960;-62
2023/09/01 12:31:08;;;;;;;;;;;20.60;57.00;;;;;;5053957;28;20479;-62
2023/09/01 12:33:36;;;;;;;;;;;20.60;56.90;;;;;;5051358;28;19933;-62
2023/09/01 12:36:04;;;;;;;;;;;20.70;57.20;;;;;;5058421;28;19935;-62
2023/09/01 12:38:31;;;;;;;;;;;20.70;57.30;;;;;;5054740;28;20400;-62
2023/09/01 12:40:58;;;;;;;;;;;20.70;57.60;;;;;;5055536;28;20015;-62
2023/09/01 12:43:25;;;;;;;;;;;20.70;57.20;;;;;;5055969;28;19986;-62
2023/09/01 12:45:52;;;;;;;;;;;20.70;57.00;;;;;;5052291;28;19928;-62
2023/09/01 12:48:19;;;;;;;;;;;20.70;57.00;;;;;;5055133;28;19936;-62
2023/09/01 12:50:47;;;;;;;;;;;20.70;57.00;;;;;;5058046;28;19936;-62
2023/09/01 12:53:14;;;;;;;;;;;20.70;56.90;;;;;;5062569;28;19929;-59
2023/09/01 12:55:45;;;;;;;;;;;20.70;57.00;;;;;;5055640;28;19931;-61
2023/09/01 12:58:13;;;;;;;;;;;20.70;57.40;;;;;;5053067;28;19948;-63
2023/09/01 13:00:39;;;;;;;;;;;20.70;57.10;;;;;;5055031;28;20443;-62
2023/09/01 13:03:06;;;;;;;;;;;20.70;57.00;;;;;;5055234;28;20023;-61
2023/09/01 13:05:34;;;;;;;;;;;20.70;57.20;;;;;;5053353;28;19968;-62
2023/09/01 13:08:01;;;;;;;;;;;20.70;57.20;;;;;;5051851;28;20024;-62
2023/09/01 13:10:28;;;;;;;;;;;20.70;57.00;;;;;;5051589;28;19995;-61
2023/09/01 13:12:55;;;;;;;;;;;20.80;57.10;;;;;;5043767;28;19933;-60
2023/09/01 13:15:22;;;;;;;;;;;20.80;57.00;;;;;;5031727;28;19936;-60
2023/09/01 13:17:49;;;;;;;;;;;20.80;56.80;;;;;;5042543;28;19925;-60
2023/09/01 13:20:16;;;;;;;;;;;20.80;57.00;;;;;;5034888;28;19925;-60
2023/09/01 13:22:43;;;;;;;;;;;20.80;57.40;;;;;;5033834;28;20016;-60
2023/09/01 13:25:10;;;;;;;;;;;20.80;56.70;;;;;;5038127;28;19976;-60
2023/09/01 13:27:37;;;;;;;;;;;20.80;57.20;;;;;;5054562;28;19928;-60
2023/09/01 13:30:05;;;;;;;;;;;20.80;57.40;;;;;;5047307;28;19983;-60
2023/09/01 13:32:32;;;;;;;;;;;20.70;57.20;;;;;;5054995;28;20019;-61
2023/09/01 13:34:59;;;;;;;;;;;20.70;57.00;;;;;;5054407;28;19924;-60
2023/09/01 13:37:26;;;;;;;;;;;20.70;56.80;;;;;;5039278;28;19965;-61
2023/09/01 13:39:55;;;;;;;;;;;20.70;56.40;;;;;;5032704;28;20433;-61
2023/09/01 13:42:27;;;;;;;;;;;20.80;56.50;;;;;;5029780;28;19933;-61
2023/09/01 13:44:55;;;;;;;;;;;20.70;56.90;;;;;;5043045;28;19971;-61
2023/09/01 13:47:22;;;;;;;;;;;20.80;56.60;;;;;;5054240;28;19982;-61
2023/09/01 13:49:53;;;;;;;;;;;20.80;56.80;;;;;;5042168;28;20015;-62
2023/09/01 13:52:21;;;;;;;;;;;20.70;56.50;;;;;;5014289;28;19951;-61
2023/09/01 13:54:52;;;;;;;;;;;20.70;56.40;;;;;;5029492;28;19925;-61
2023/09/01 13:57:20;;;;;;;;;;;20.80;56.50;;;;;;5054254;28;19975;-61
2023/09/01 13:59:47;;;;;;;;;;;20.80;56.70;;;;;;5054544;28;19986;-61
2023/09/01 14:02:14;;;;;;;;;;;20.80;56.60;;;;;;5041443;28;19925;-61
2023/09/01 14:04:42;;;;;;;;;;;20.70;58.60;;;;;;5034353;28;19933;-62
2023/09/01 14:07:09;;;;;;;;;;;20.80;66.90;;;;;;5051991;28;20285;-61
2023/09/01 14:09:36;;;;;;;;;;;21.00;71.50;;;;;;5054475;28;19948;-62
2023/09/01 14:12:03;;;;;;;;;;;21.30;73.70;;;;;;5070078;28;20385;-61
2023/09/01 14:14:30;;;;;;;;;;;21.50;74.10;;;;;;5074392;28;19982;-61
2023/09/01 14:16:57;;;;;;;;;;;21.80;74.30;;;;;;5073314;28;20449;-62
2023/09/01 14:19:24;;;;;;;;;;;22.00;74.30;;;;;;5073197;28;19925;-61
2023/09/01 14:21:51;;;;;;;;;;;22.30;74.10;;;;;;5069554;28;20035;-61
2023/09/01 14:24:18;;;;;;;;;;;22.50;74.00;;;;;;5053170;28;19972;-61